sensor_id;sensor_type;location;lat;lon;timestamp;pressure;altitude;pressure_sealevel;temperature;humidity
57248;BME280;55809;46.618;10.764;2022-10-31T08:43:11;93726.63;;;15.64;57.93
57248;BME280;55809;46.618;10.764;2022-10-31T08:45:40;93742.97;;;15.91;57.23
57248;BME280;55809;46.618;10.764;2022-10-31T08:48:10;93736.13;;;16.06;56.52
57248;BME280;55809;46.618;10.764;2022-10-31T08:50:37;93713.59;;;16.02;55.73
57248;BME280;55809;46.618;10.764;2022-10-31T08:53:07;93760.94;;;16.59;54.79
57248;BME280;55809;46.618;10.764;2022-10-31T08:55:36;93766.91;;;16.74;54.59
57248;BME280;55809;46.618;10.764;2022-10-31T08:58:05;93751.84;;;16.89;54.46
57248;BME280;55809;46.618;10.764;2022-10-31T09:00:34;93749.97;;;16.86;53.18
57248;BME280;55809;46.618;10.764;2022-10-31T09:03:03;93762.50;;;17.03;52.80
57248;BME280;55809;46.618;10.764;2022-10-31T09:05:31;93737.94;;;17.03;52.48
57248;BME280;55809;46.618;10.764;2022-10-31T09:08:00;93761.44;;;17.17;51.80
57248;BME280;55809;46.618;10.764;2022-10-31T09:10:30;93717.66;;;17.04;52.50
57248;BME280;55809;46.618;10.764;2022-10-31T09:12:59;93752.22;;;17.31;52.59
57248;BME280;55809;46.618;10.764;2022-10-31T09:15:27;93705.00;;;17.14;49.40
57248;BME280;55809;46.618;10.764;2022-10-31T09:21:17;93732.72;;;17.49;47.90
57248;BME280;55809;46.618;10.764;2022-10-31T09:23:46;93694.28;;;17.23;47.29
57248;BME280;55809;46.618;10.764;2022-10-31T09:26:15;93737.75;;;17.70;47.30
57248;BME280;55809;46.618;10.764;2022-10-31T09:28:43;93689.94;;;17.62;47.24
57248;BME280;55809;46.618;10.764;2022-10-31T09:31:12;93734.66;;;18.04;46.32
57248;BME280;55809;46.618;10.764;2022-10-31T09:37:05;93675.53;;;17.62;47.77
57248;BME280;55809;46.618;10.764;2022-10-31T09:39:32;93702.66;;;17.69;46.98
57248;BME280;55809;46.618;10.764;2022-10-31T09:42:09;93730.50;;;17.80;48.58
57248;BME280;55809;46.618;10.764;2022-10-31T09:44:49;93719.78;;;17.89;49.46
57248;BME280;55809;46.618;10.764;2022-10-31T10:13:55;93674.38;;;17.43;49.15
57248;BME280;55809;46.618;10.764;2022-10-31T10:16:45;93687.22;;;17.62;49.20
57248;BME280;55809;46.618;10.764;2022-10-31T10:19:32;93680.22;;;17.61;47.32
57248;BME280;55809;46.618;10.764;2022-10-31T10:22:04;93660.47;;;17.53;46.70
57248;BME280;55809;46.618;10.764;2022-10-31T10:37:46;93622.34;;;16.37;50.40
57248;BME280;55809;46.618;10.764;2022-10-31T10:40:18;93643.09;;;16.51;48.52
57248;BME280;55809;46.618;10.764;2022-10-31T10:49:34;93681.09;;;16.82;50.11
57248;BME280;55809;46.618;10.764;2022-10-31T10:52:13;93674.94;;;16.98;48.86
57248;BME280;55809;46.618;10.764;2022-10-31T10:54:57;93646.63;;;16.92;47.63
57248;BME280;55809;46.618;10.764;2022-10-31T10:57:42;93671.22;;;17.28;47.45
57248;BME280;55809;46.618;10.764;2022-10-31T11:00:18;93633.00;;;17.28;45.25
57248;BME280;55809;46.618;10.764;2022-10-31T11:06:17;93637.69;;;17.44;46.90
57248;BME280;55809;46.618;10.764;2022-10-31T11:08:47;93660.34;;;17.61;47.50
57248;BME280;55809;46.618;10.764;2022-10-31T11:11:23;93658.56;;;17.87;47.84
57248;BME280;55809;46.618;10.764;2022-10-31T11:13:58;93617.16;;;17.72;48.02
57248;BME280;55809;46.618;10.764;2022-10-31T11:31:45;93614.34;;;17.75;45.88
57248;BME280;55809;46.618;10.764;2022-10-31T11:34:18;93631.97;;;17.91;45.77
57248;BME280;55809;46.618;10.764;2022-10-31T11:49:51;93604.63;;;17.74;44.94
57248;BME280;55809;46.618;10.764;2022-10-31T11:52:22;93612.66;;;17.65;44.62
57248;BME280;55809;46.618;10.764;2022-10-31T11:54:54;93580.56;;;17.37;45.41
57248;BME280;55809;46.618;10.764;2022-10-31T12:00:49;93577.16;;;17.49;46.74
57248;BME280;55809;46.618;10.764;2022-10-31T12:03:38;93568.88;;;17.36;46.83
57248;BME280;55809;46.618;10.764;2022-10-31T12:06:15;93562.16;;;17.41;49.46
57248;BME280;55809;46.618;10.764;2022-10-31T12:08:45;93576.66;;;17.38;48.63
57248;BME280;55809;46.618;10.764;2022-10-31T12:11:35;93570.47;;;17.17;48.85
57248;BME280;55809;46.618;10.764;2022-10-31T12:14:13;93575.81;;;17.04;49.61
57248;BME280;55809;46.618;10.764;2022-10-31T12:16:50;93529.69;;;16.77;53.36
57248;BME280;55809;46.618;10.764;2022-10-31T12:19:42;93562.22;;;16.84;51.91
57248;BME280;55809;46.618;10.764;2022-10-31T12:22:23;93559.72;;;16.74;50.81
57248;BME280;55809;46.618;10.764;2022-10-31T12:25:04;93568.47;;;16.65;51.14
57248;BME280;55809;46.618;10.764;2022-10-31T12:27:59;93563.88;;;16.62;50.08
57248;BME280;55809;46.618;10.764;2022-10-31T12:30:31;93511.63;;;16.27;50.00
57248;BME280;55809;46.618;10.764;2022-10-31T12:59:52;93529.34;;;16.15;55.34
57248;BME280;55809;46.618;10.764;2022-10-31T13:22:45;93468.34;;;15.73;52.08
57248;BME280;55809;46.618;10.764;2022-10-31T13:29:13;93448.81;;;15.55;56.92
57248;BME280;55809;46.618;10.764;2022-10-31T13:31:53;93463.81;;;15.66;58.65
57248;BME280;55809;46.618;10.764;2022-10-31T14:08:17;93436.09;;;15.28;65.31
57248;BME280;55809;46.618;10.764;2022-10-31T14:10:49;93471.50;;;15.48;66.93
57248;BME280;55809;46.618;10.764;2022-10-31T14:13:21;93467.25;;;15.47;67.50
57248;BME280;55809;46.618;10.764;2022-10-31T14:15:54;93471.94;;;15.43;67.62
57248;BME280;55809;46.618;10.764;2022-10-31T14:18:25;93418.53;;;15.09;68.55
57248;BME280;55809;46.618;10.764;2022-10-31T14:20:55;93453.59;;;15.27;72.57
57248;BME280;55809;46.618;10.764;2022-10-31T14:23:34;93464.56;;;15.20;71.84
57248;BME280;55809;46.618;10.764;2022-10-31T14:26:18;93423.53;;;14.91;72.09
57248;BME280;55809;46.618;10.764;2022-10-31T14:28:47;93428.13;;;14.94;72.98
57248;BME280;55809;46.618;10.764;2022-10-31T14:31:34;93427.59;;;14.79;74.47
57248;BME280;55809;46.618;10.764;2022-10-31T14:34:15;93420.25;;;14.76;73.57
57248;BME280;55809;46.618;10.764;2022-10-31T14:36:54;93456.91;;;14.91;72.75
57248;BME280;55809;46.618;10.764;2022-10-31T14:39:30;93461.41;;;15.01;72.89
57248;BME280;55809;46.618;10.764;2022-10-31T14:42:16;93458.25;;;15.03;72.88
57248;BME280;55809;46.618;10.764;2022-10-31T14:45:01;93408.56;;;14.79;73.54
57248;BME280;55809;46.618;10.764;2022-10-31T14:47:40;93462.34;;;15.15;73.06
57248;BME280;55809;46.618;10.764;2022-10-31T14:50:20;93434.22;;;15.01;72.56
57248;BME280;55809;46.618;10.764;2022-10-31T14:52:52;93449.81;;;15.21;72.35
